Time;durP1;ratioP1;P1;durP2;ratioP2;P2;SDS_P1;SDS_P2;PMS_P1;PMS_P2;Temp;Humidity;BMP_temperature;BMP_pressure;BME280_temperature;BME280_humidity;BME280_pressure;Samples;Min_cycle;Max_cycle;Signal;HPM_P1;HPM_P2
2023/12/13 00:01:26;;;;;;;101.57;27.55;;;7.40;99.90;;;;;;5074750;28;20039;-67
2023/12/13 00:03:53;;;;;;;182.77;30.73;;;7.40;99.90;;;;;;5092586;28;20082;-67
2023/12/13 00:06:20;;;;;;;84.07;27.58;;;7.30;99.90;;;;;;5093832;28;20048;-67
2023/12/13 00:08:46;;;;;;;73.53;24.92;;;7.30;99.90;;;;;;5092725;28;20040;-67
2023/12/13 00:11:11;;;;;;;216.82;64.28;;;7.30;99.90;;;;;;5092581;28;20086;-67
2023/12/13 00:13:37;;;;;;;80.07;24.00;;;7.30;99.90;;;;;;5091208;28;20032;-67
2023/12/13 00:16:03;;;;;;;169.70;58.60;;;7.30;99.90;;;;;;5088123;28;20039;-67
2023/12/13 00:18:30;;;;;;;256.00;71.53;;;7.30;99.90;;;;;;5073053;28;20195;-67
2023/12/13 00:20:56;;;;;;;84.97;25.77;;;7.20;99.90;;;;;;5092657;28;20038;-68
2023/12/13 00:23:22;;;;;;;76.05;23.90;;;7.30;99.90;;;;;;5091511;28;20408;-67
2023/12/13 00:25:48;;;;;;;178.70;60.95;;;7.30;99.90;;;;;;5089379;28;20052;-67
2023/12/13 00:28:14;;;;;;;188.52;60.92;;;7.30;99.90;;;;;;5054456;28;20047;-67
2023/12/13 00:30:40;;;;;;;145.45;56.30;;;7.30;99.90;;;;;;5089721;28;20062;-67
2023/12/13 00:33:05;;;;;;;86.05;26.20;;;7.30;99.90;;;;;;5056739;28;20044;-67
2023/12/13 00:35:31;;;;;;;71.97;25.48;;;7.30;99.90;;;;;;5074604;28;20499;-67
2023/12/13 00:37:57;;;;;;;69.65;23.83;;;7.30;99.90;;;;;;5072766;28;20043;-67
2023/12/13 00:40:24;;;;;;;170.02;61.30;;;7.20;99.90;;;;;;5093440;28;20051;-67
2023/12/13 00:42:50;;;;;;;83.20;24.83;;;7.20;99.90;;;;;;5091475;28;20409;-67
2023/12/13 00:45:16;;;;;;;78.35;26.15;;;7.20;99.90;;;;;;5091724;28;20044;-67
2023/12/13 00:47:42;;;;;;;80.93;23.88;;;7.20;99.90;;;;;;5090731;28;20040;-67
2023/12/13 00:50:08;;;;;;;148.43;58.30;;;7.20;99.90;;;;;;5090417;28;20118;-67
2023/12/13 00:52:35;;;;;;;76.55;24.98;;;7.20;99.90;;;;;;5094132;28;20035;-67
2023/12/13 00:55:01;;;;;;;74.80;23.42;;;7.20;99.90;;;;;;5090713;28;20040;-67
2023/12/13 00:57:27;;;;;;;173.98;61.30;;;7.20;99.90;;;;;;5089298;28;20043;-67
2023/12/13 00:59:53;;;;;;;178.38;61.28;;;7.10;99.90;;;;;;5073909;28;20063;-67
2023/12/13 01:02:19;;;;;;;176.95;62.40;;;7.10;99.90;;;;;;5091702;28;20044;-67
2023/12/13 01:04:45;;;;;;;60.85;21.90;;;7.10;99.90;;;;;;5078770;28;20486;-67
2023/12/13 01:07:11;;;;;;;61.47;21.90;;;7.00;99.90;;;;;;5089438;28;20079;-67
2023/12/13 01:09:39;;;;;;;152.07;57.47;;;7.00;99.90;;;;;;5090054;28;20127;-67
2023/12/13 01:12:06;;;;;;;69.03;22.90;;;6.90;99.90;;;;;;5072611;28;20036;-67
2023/12/13 01:14:32;;;;;;;48.33;20.23;;;6.90;99.90;;;;;;5090325;28;20036;-67
2023/12/13 01:16:58;;;;;;;54.08;20.65;;;6.80;99.90;;;;;;5071654;28;20027;-67
2023/12/13 01:19:24;;;;;;;65.72;23.15;;;6.80;99.90;;;;;;5071716;28;20085;-67
2023/12/13 01:21:51;;;;;;;64.57;22.13;;;6.70;99.90;;;;;;5090952;28;20036;-67
2023/12/13 01:24:16;;;;;;;61.05;21.20;;;6.70;99.90;;;;;;5089964;28;20032;-67
2023/12/13 01:26:42;;;;;;;119.57;47.75;;;6.60;99.90;;;;;;5089316;28;20092;-67
2023/12/13 01:29:08;;;;;;;42.75;16.52;;;6.60;99.90;;;;;;5090843;28;20473;-67
2023/12/13 01:31:35;;;;;;;35.85;16.13;;;6.60;99.90;;;;;;5089876;28;20048;-67
2023/12/13 01:34:02;;;;;;;52.45;18.88;;;6.60;99.90;;;;;;5091565;28;20048;-67
2023/12/13 01:36:28;;;;;;;50.25;19.35;;;6.70;99.90;;;;;;5091895;28;20040;-67
2023/12/13 01:38:54;;;;;;;74.32;40.65;;;6.70;99.90;;;;;;5073776;28;20035;-67
2023/12/13 01:41:19;;;;;;;58.30;19.73;;;6.80;99.90;;;;;;5072628;28;20039;-67
2023/12/13 01:43:45;;;;;;;45.75;17.95;;;6.80;99.90;;;;;;5089340;28;20044;-67
2023/12/13 01:46:13;;;;;;;48.15;17.33;;;6.90;99.90;;;;;;5054091;28;20181;-67
2023/12/13 01:48:40;;;;;;;44.10;19.80;;;6.90;99.90;;;;;;5086989;28;20040;-67
2023/12/13 01:51:07;;;;;;;41.60;17.30;;;6.90;99.90;;;;;;5092579;28;20370;-67
2023/12/13 01:53:33;;;;;;;94.70;42.50;;;6.90;99.90;;;;;;5073504;28;20499;-67
2023/12/13 01:56:00;;;;;;;46.05;18.48;;;7.00;99.90;;;;;;5072536;28;20028;-67
2023/12/13 01:58:27;;;;;;;50.45;17.33;;;7.00;99.90;;;;;;5069098;28;20032;-67
2023/12/13 02:00:54;;;;;;;45.35;17.90;;;7.00;99.90;;;;;;5080130;28;20529;-67
2023/12/13 02:03:24;;;;;;;45.25;16.95;;;7.00;99.90;;;;;;5085623;28;20389;-67
2023/12/13 02:05:53;;;;;;;43.70;18.42;;;7.10;99.90;;;;;;5085156;28;20132;-67
2023/12/13 02:08:19;;;;;;;44.20;17.48;;;7.10;99.90;;;;;;5069272;28;20039;-67
2023/12/13 02:10:45;;;;;;;59.40;34.60;;;7.10;99.90;;;;;;5070444;28;20043;-67
2023/12/13 02:13:14;;;;;;;39.08;15.30;;;7.10;99.90;;;;;;5089086;28;20362;-67
2023/12/13 02:15:44;;;;;;;40.50;15.02;;;7.10;99.90;;;;;;5090116;28;20036;-67
2023/12/13 02:18:10;;;;;;;32.03;14.85;;;7.10;99.90;;;;;;5090785;28;20035;-67
2023/12/13 02:20:36;;;;;;;41.67;14.50;;;7.00;99.90;;;;;;5097144;28;20035;-67
2023/12/13 02:23:02;;;;;;;34.50;15.48;;;7.10;99.90;;;;;;5092275;28;20075;-67
2023/12/13 02:25:54;;;;;;;47.80;16.40;;;7.10;99.90;;;;;;5095434;28;20468;-67
2023/12/13 02:28:22;;;;;;;36.20;14.80;;;7.10;99.90;;;;;;5086975;28;20044;-67
2023/12/13 02:30:50;;;;;;;33.72;13.27;;;7.00;99.90;;;;;;5090123;28;20509;-67
2023/12/13 02:33:16;;;;;;;27.85;12.15;;;7.00;99.90;;;;;;5089552;28;20127;-67
2023/12/13 02:35:42;;;;;;;33.70;13.43;;;7.00;99.90;;;;;;5091793;28;20115;-67
2023/12/13 02:38:07;;;;;;;35.70;13.63;;;7.00;99.90;;;;;;5099869;28;20542;-67
2023/12/13 02:40:33;;;;;;;33.88;13.55;;;7.00;99.90;;;;;;5077178;28;20032;-67
2023/12/13 02:42:59;;;;;;;28.73;13.30;;;7.00;99.90;;;;;;5100470;28;20031;-67
2023/12/13 02:45:24;;;;;;;30.38;12.32;;;7.00;99.90;;;;;;5076541;28;20485;-67
2023/12/13 02:47:52;;;;;;;33.70;12.20;;;7.00;99.90;;;;;;5055619;28;20039;-67
2023/12/13 02:50:18;;;;;;;27.15;12.45;;;7.00;99.90;;;;;;5072699;28;20059;-67
2023/12/13 02:52:44;;;;;;;33.17;12.88;;;7.00;99.90;;;;;;5089340;28;20508;-67
2023/12/13 02:55:10;;;;;;;64.18;30.08;;;6.90;99.90;;;;;;5070042;28;20036;-67
2023/12/13 02:57:36;;;;;;;32.70;13.05;;;6.90;99.90;;;;;;5088673;28;20047;-67
2023/12/13 03:00:03;;;;;;;39.08;14.55;;;7.00;99.90;;;;;;5089228;28;20047;-67
2023/12/13 03:02:29;;;;;;;33.97;14.73;;;7.00;99.90;;;;;;5071436;28;20052;-67
2023/12/13 03:04:55;;;;;;;31.42;13.50;;;7.00;99.90;;;;;;5087092;28;20085;-67
2023/12/13 03:07:22;;;;;;;44.95;15.00;;;7.00;99.90;;;;;;5093014;28;20043;-68
2023/12/13 03:09:47;;;;;;;38.53;15.07;;;7.00;99.90;;;;;;5072544;28;20044;-67
2023/12/13 03:12:14;;;;;;;32.92;14.43;;;7.10;99.90;;;;;;5058404;28;20496;-67
2023/12/13 03:14:39;;;;;;;35.58;14.70;;;7.00;99.90;;;;;;5075272;28;20044;-67
2023/12/13 03:17:05;;;;;;;36.97;14.70;;;7.00;99.90;;;;;;5075807;28;20046;-67
2023/12/13 03:19:31;;;;;;;32.30;14.63;;;7.00;99.90;;;;;;5092647;28;20443;-67
2023/12/13 03:21:57;;;;;;;41.45;15.25;;;6.90;99.90;;;;;;5091277;28;20043;-67
2023/12/13 03:24:22;;;;;;;31.95;14.23;;;6.90;99.90;;;;;;5091825;28;20119;-67
2023/12/13 03:26:48;;;;;;;31.10;13.65;;;6.90;99.90;;;;;;5074582;28;20039;-67
2023/12/13 03:29:14;;;;;;;45.22;14.43;;;6.90;99.90;;;;;;5073800;28;20110;-67
2023/12/13 03:31:40;;;;;;;37.75;15.15;;;6.80;99.90;;;;;;5057542;28;20029;-67
2023/12/13 03:34:06;;;;;;;35.58;13.70;;;6.80;99.90;;;;;;5093248;28;20569;-67
2023/12/13 03:36:31;;;;;;;34.20;13.73;;;6.80;99.90;;;;;;5093906;28;20461;-67
2023/12/13 03:38:57;;;;;;;38.15;15.10;;;6.80;99.90;;;;;;5092417;28;20040;-67
2023/12/13 03:41:23;;;;;;;89.65;38.53;;;6.90;99.90;;;;;;5076418;28;20075;-67
2023/12/13 03:43:49;;;;;;;34.40;15.48;;;6.90;99.90;;;;;;5092019;28;20038;-67
2023/12/13 03:46:15;;;;;;;34.28;15.63;;;6.90;99.90;;;;;;5059170;28;20043;-67
2023/12/13 03:48:41;;;;;;;42.55;18.65;;;7.00;99.90;;;;;;5090619;28;20460;-67
2023/12/13 03:51:07;;;;;;;62.80;34.35;;;7.10;99.90;;;;;;5093251;28;20085;-67
2023/12/13 03:53:32;;;;;;;41.38;17.13;;;7.10;99.90;;;;;;5098677;28;20404;-67
2023/12/13 03:55:59;;;;;;;42.92;15.63;;;7.10;99.90;;;;;;5092146;28;20032;-67
2023/12/13 03:58:25;;;;;;;33.78;14.05;;;7.10;99.90;;;;;;5076356;28;20070;-67
2023/12/13 04:00:51;;;;;;;38.25;17.52;;;7.20;99.90;;;;;;5073812;28;20225;-67
2023/12/13 04:03:17;;;;;;;32.72;14.93;;;7.20;99.90;;;;;;5094033;28;20110;-67
2023/12/13 04:05:43;;;;;;;39.88;16.30;;;7.20;99.90;;;;;;5074533;28;20060;-67
2023/12/13 04:08:09;;;;;;;38.90;15.48;;;7.20;99.90;;;;;;5073002;28;20123;-67
2023/12/13 04:10:34;;;;;;;41.95;15.35;;;7.20;99.90;;;;;;5074427;28;20123;-67
2023/12/13 04:13:00;;;;;;;31.92;14.30;;;7.20;99.90;;;;;;5091187;28;20036;-67
2023/12/13 04:15:26;;;;;;;56.70;31.95;;;7.20;99.90;;;;;;5073608;28;20043;-67
2023/12/13 04:17:52;;;;;;;64.80;33.03;;;7.30;99.90;;;;;;5054915;28;20429;-67
2023/12/13 04:20:17;;;;;;;37.42;15.90;;;7.30;99.90;;;;;;5080912;28;20226;-67
2023/12/13 04:22:44;;;;;;;30.77;15.18;;;7.30;99.90;;;;;;5095965;28;20036;-67
2023/12/13 04:25:10;;;;;;;33.78;15.13;;;7.30;99.90;;;;;;5094713;28;20044;-67
2023/12/13 04:27:36;;;;;;;56.17;33.70;;;7.30;99.90;;;;;;5078220;28;20032;-67
2023/12/13 04:30:01;;;;;;;36.50;16.17;;;7.20;99.90;;;;;;5074907;28;20370;-67
2023/12/13 04:32:28;;;;;;;36.33;14.93;;;7.20;99.90;;;;;;5094261;28;20036;-67
2023/12/13 04:34:54;;;;;;;38.42;14.55;;;7.30;99.90;;;;;;5091794;28;20073;-67
2023/12/13 04:37:20;;;;;;;33.85;16.75;;;7.30;99.90;;;;;;5094298;28;20062;-67
2023/12/13 04:39:46;;;;;;;38.88;16.55;;;7.30;99.90;;;;;;5091106;28;20048;-67
2023/12/13 04:42:11;;;;;;;40.03;17.23;;;7.30;99.90;;;;;;5075456;28;20382;-67
2023/12/13 04:44:37;;;;;;;42.10;16.83;;;7.20;99.90;;;;;;5091024;28;20505;-67
2023/12/13 04:47:03;;;;;;;74.45;36.90;;;7.30;99.90;;;;;;5094036;28;20087;-67
2023/12/13 04:49:29;;;;;;;39.03;16.70;;;7.20;99.90;;;;;;5093442;28;20065;-67
2023/12/13 04:51:55;;;;;;;37.30;16.25;;;7.20;99.90;;;;;;5094699;28;20044;-67
2023/12/13 04:54:21;;;;;;;36.80;14.18;;;7.30;99.90;;;;;;5074958;28;20040;-67
2023/12/13 04:56:46;;;;;;;42.05;16.77;;;7.20;99.90;;;;;;5075129;28;20382;-67
2023/12/13 04:59:12;;;;;;;34.88;15.40;;;7.20;99.90;;;;;;5059498;28;20449;-67
2023/12/13 05:01:38;;;;;;;42.67;17.25;;;7.20;99.90;;;;;;5091586;28;20054;-67
2023/12/13 05:04:04;;;;;;;36.20;15.73;;;7.20;99.90;;;;;;5079717;28;20055;-67
2023/12/13 05:06:29;;;;;;;38.80;16.08;;;7.20;99.90;;;;;;5042700;28;20661;-67
2023/12/13 05:08:55;;;;;;;70.07;35.30;;;7.20;99.90;;;;;;5093396;28;20492;-67
2023/12/13 05:11:21;;;;;;;40.95;17.35;;;7.20;99.90;;;;;;5052915;28;20036;-67
2023/12/13 05:13:47;;;;;;;39.75;16.15;;;7.20;99.90;;;;;;5091486;28;20039;-67
2023/12/13 05:16:13;;;;;;;43.13;15.90;;;7.20;99.90;;;;;;5088965;28;20035;-67
2023/12/13 05:18:39;;;;;;;41.50;16.98;;;7.20;99.90;;;;;;5072577;28;20499;-67
2023/12/13 05:21:05;;;;;;;40.60;16.73;;;7.20;99.90;;;;;;5069432;28;20112;-67
2023/12/13 05:23:30;;;;;;;47.88;17.10;;;7.20;99.90;;;;;;5090741;28;20036;-67
2023/12/13 05:25:56;;;;;;;39.95;16.85;;;7.20;99.90;;;;;;5088867;28;20033;-67
2023/12/13 05:28:22;;;;;;;38.55;16.70;;;7.20;99.90;;;;;;5089192;28;20075;-67
2023/12/13 05:30:47;;;;;;;68.13;35.95;;;7.20;99.90;;;;;;5088831;28;20508;-67
2023/12/13 05:33:13;;;;;;;36.58;16.20;;;7.20;99.90;;;;;;5073971;28;20080;-67
2023/12/13 05:35:39;;;;;;;42.65;18.02;;;7.20;99.90;;;;;;5074065;28;20119;-67
2023/12/13 05:38:04;;;;;;;46.53;18.13;;;7.20;99.90;;;;;;5074079;28;20137;-67
2023/12/13 05:40:34;;;;;;;37.65;16.65;;;7.20;99.90;;;;;;5088754;28;20032;-67
2023/12/13 05:43:01;;;;;;;53.67;19.60;;;7.20;99.90;;;;;;5074707;28;20051;-67
2023/12/13 05:45:26;;;;;;;44.75;16.90;;;7.20;99.90;;;;;;5088121;28;20496;-67
2023/12/13 05:47:52;;;;;;;44.33;18.42;;;7.20;99.90;;;;;;5056969;28;20040;-67
2023/12/13 05:50:18;;;;;;;40.92;19.10;;;7.20;99.90;;;;;;5090713;28;20036;-67
2023/12/13 05:52:44;;;;;;;47.90;17.33;;;7.20;99.90;;;;;;5090566;28;20085;-67
2023/12/13 05:55:11;;;;;;;46.00;18.60;;;7.20;99.90;;;;;;5073884;28;20040;-67
2023/12/13 05:57:37;;;;;;;62.47;22.83;;;7.20;99.90;;;;;;5091096;28;20044;-67
2023/12/13 06:00:06;;;;;;;46.28;18.38;;;7.20;99.90;;;;;;5090107;28;20047;-67
2023/12/13 06:02:34;;;;;;;47.22;19.63;;;7.20;99.90;;;;;;5088927;28;20055;-67
2023/12/13 06:05:02;;;;;;;84.45;39.80;;;7.30;99.90;;;;;;5088805;28;20040;-67
2023/12/13 06:07:32;;;;;;;96.70;41.60;;;7.20;99.90;;;;;;5086649;28;20040;-67
2023/12/13 06:09:58;;;;;;;41.10;17.83;;;7.20;99.90;;;;;;5055465;28;20077;-67
2023/12/13 06:12:23;;;;;;;39.38;18.15;;;7.30;99.90;;;;;;5088564;28;20036;-67
2023/12/13 06:14:49;;;;;;;86.57;39.45;;;7.30;99.90;;;;;;5089807;28;20400;-67
2023/12/13 06:17:15;;;;;;;42.15;17.52;;;7.30;99.90;;;;;;5072729;28;20042;-67
2023/12/13 06:19:41;;;;;;;45.55;17.27;;;7.30;99.90;;;;;;5088428;28;20547;-67
2023/12/13 06:22:10;;;;;;;41.17;17.80;;;7.30;99.90;;;;;;5091587;28;20036;-67
2023/12/13 06:24:36;;;;;;;79.20;37.80;;;7.20;99.90;;;;;;5086363;28;20036;-67
2023/12/13 06:27:03;;;;;;;37.13;16.27;;;7.30;99.90;;;;;;5088695;28;20519;-67
2023/12/13 06:29:29;;;;;;;41.17;17.85;;;7.20;99.90;;;;;;5089963;28;20051;-67
2023/12/13 06:31:54;;;;;;;77.28;37.10;;;7.30;99.90;;;;;;5071644;28;20043;-67
2023/12/13 06:34:20;;;;;;;39.97;18.02;;;7.30;99.90;;;;;;5090102;28;20044;-67
2023/12/13 06:36:46;;;;;;;41.08;16.80;;;7.20;99.90;;;;;;5072040;28;20527;-67
2023/12/13 06:39:12;;;;;;;41.50;15.98;;;7.20;99.90;;;;;;5072262;28;20464;-67
2023/12/13 06:41:39;;;;;;;79.32;38.53;;;7.20;99.90;;;;;;5090303;28;20040;-67
2023/12/13 06:44:06;;;;;;;40.30;18.45;;;7.20;99.90;;;;;;5087131;28;20517;-67
2023/12/13 06:46:32;;;;;;;46.58;18.73;;;7.20;99.90;;;;;;5087188;28;20036;-67
2023/12/13 06:48:58;;;;;;;118.47;47.35;;;7.20;99.90;;;;;;5094606;28;20055;-67
2023/12/13 06:51:24;;;;;;;55.42;19.17;;;7.20;99.90;;;;;;5057693;28;20033;-67
2023/12/13 06:53:50;;;;;;;43.92;17.20;;;7.20;99.90;;;;;;5074361;28;20028;-67
2023/12/13 06:56:16;;;;;;;87.70;40.67;;;7.20;99.90;;;;;;5093058;28;20032;-67
2023/12/13 06:58:42;;;;;;;100.10;42.13;;;7.20;99.90;;;;;;5076082;28;20043;-67
2023/12/13 07:01:08;;;;;;;90.65;42.53;;;7.20;99.90;;;;;;5092958;28;20062;-67
2023/12/13 07:03:34;;;;;;;53.20;20.17;;;7.20;99.90;;;;;;5092754;28;20141;-67
2023/12/13 07:06:01;;;;;;;41.17;17.60;;;7.20;99.90;;;;;;5092427;28;20488;-67
2023/12/13 07:08:26;;;;;;;46.60;17.50;;;7.20;99.90;;;;;;5095662;28;20071;-67
2023/12/13 07:10:52;;;;;;;44.22;17.88;;;7.10;99.90;;;;;;5075329;28;20573;-67
2023/12/13 07:13:18;;;;;;;47.40;19.05;;;7.20;99.90;;;;;;5091850;28;20047;-67
2023/12/13 07:15:44;;;;;;;47.25;19.35;;;7.20;99.90;;;;;;5080665;28;20420;-67
2023/12/13 07:18:09;;;;;;;46.10;18.63;;;7.20;99.90;;;;;;5096812;28;20115;-67
2023/12/13 07:20:35;;;;;;;47.05;17.35;;;7.20;99.90;;;;;;5077470;28;20051;-67
2023/12/13 07:23:01;;;;;;;90.97;42.10;;;7.20;99.90;;;;;;5105182;28;20565;-67
2023/12/13 07:25:27;;;;;;;50.20;20.27;;;7.20;99.90;;;;;;5103418;28;20524;-67
2023/12/13 07:27:52;;;;;;;42.38;17.70;;;7.20;99.90;;;;;;5110534;28;20039;-67
2023/12/13 07:30:18;;;;;;;55.35;20.85;;;7.20;99.90;;;;;;5113041;28;20075;-67
2023/12/13 07:32:44;;;;;;;54.55;20.48;;;7.20;99.90;;;;;;5098666;28;20052;-67
2023/12/13 07:35:10;;;;;;;51.40;20.42;;;7.20;99.90;;;;;;5106894;28;20092;-67
2023/12/13 07:37:36;;;;;;;38.60;16.15;;;7.20;99.90;;;;;;5105003;28;20032;-67
2023/12/13 07:40:05;;;;;;;94.70;41.97;;;7.20;99.90;;;;;;5076301;28;20036;-67
2023/12/13 07:42:31;;;;;;;53.90;20.23;;;7.20;99.90;;;;;;5105172;28;20042;-67
2023/12/13 07:44:57;;;;;;;62.88;19.70;;;7.20;99.90;;;;;;5092270;28;20048;-67
2023/12/13 07:47:23;;;;;;;99.28;43.70;;;7.20;99.90;;;;;;5097078;28;20119;-67
2023/12/13 07:49:49;;;;;;;44.03;17.50;;;7.20;99.90;;;;;;5089363;28;20040;-67
2023/12/13 07:52:15;;;;;;;52.78;18.88;;;7.20;99.90;;;;;;5086398;28;20061;-67
2023/12/13 07:54:42;;;;;;;54.90;20.08;;;7.20;99.90;;;;;;5072509;28;20485;-68
2023/12/13 07:57:08;;;;;;;87.03;42.08;;;7.20;99.90;;;;;;5069042;28;20115;-67
2023/12/13 07:59:34;;;;;;;50.60;20.27;;;7.20;99.90;;;;;;5090841;28;20042;-67
2023/12/13 08:02:00;;;;;;;47.97;18.38;;;7.20;99.90;;;;;;5089758;28;20040;-67
2023/12/13 08:04:25;;;;;;;53.63;20.17;;;7.20;99.90;;;;;;5101625;28;20070;-67
2023/12/13 08:06:52;;;;;;;112.75;49.15;;;7.20;99.90;;;;;;5085908;28;20076;-67
2023/12/13 08:09:19;;;;;;;55.65;21.02;;;7.20;99.90;;;;;;5084616;28;20043;-67
2023/12/13 08:11:46;;;;;;;48.60;19.33;;;7.20;99.90;;;;;;5108516;28;20058;-67
2023/12/13 08:14:14;;;;;;;54.13;20.50;;;7.20;99.90;;;;;;5094774;28;20036;-67
2023/12/13 08:16:40;;;;;;;108.97;47.38;;;7.20;99.90;;;;;;5077796;28;20040;-68
2023/12/13 08:19:06;;;;;;;51.58;20.92;;;7.20;99.90;;;;;;5050249;28;20093;-67
2023/12/13 08:21:32;;;;;;;52.80;21.35;;;7.30;99.90;;;;;;5063490;28;20043;-67
2023/12/13 08:23:58;;;;;;;46.38;18.88;;;7.80;99.90;;;;;;5080571;28;20044;-67
2023/12/13 08:26:26;;;;;;;96.97;43.85;;;7.20;99.90;;;;;;5096961;28;20036;-67
2023/12/13 08:28:52;;;;;;;64.25;22.40;;;7.30;99.90;;;;;;5090714;28;20047;-67
2023/12/13 08:31:18;;;;;;;50.00;19.30;;;7.30;99.90;;;;;;5098499;28;20134;-67
2023/12/13 08:33:46;;;;;;;60.85;20.58;;;7.30;99.90;;;;;;5077579;28;20092;-67
2023/12/13 08:36:13;;;;;;;56.33;21.95;;;7.30;99.90;;;;;;5111518;28;20058;-67
2023/12/13 08:38:42;;;;;;;47.63;20.70;;;7.30;99.90;;;;;;5101383;28;20370;-67
2023/12/13 08:41:09;;;;;;;97.78;43.80;;;7.30;99.90;;;;;;5109104;28;20085;-67
2023/12/13 08:43:35;;;;;;;53.72;19.55;;;7.30;99.90;;;;;;5093468;28;20036;-67
2023/12/13 08:46:01;;;;;;;102.88;45.08;;;7.30;99.90;;;;;;5059134;28;20053;-67
2023/12/13 08:48:28;;;;;;;96.25;42.97;;;7.30;99.90;;;;;;5089781;28;20032;-67
2023/12/13 08:50:53;;;;;;;62.13;20.08;;;7.30;99.90;;;;;;5102460;28;20535;-67
2023/12/13 08:53:19;;;;;;;47.35;17.90;;;7.30;99.90;;;;;;5099220;28;20070;-67
2023/12/13 08:55:45;;;;;;;44.05;18.55;;;7.30;99.90;;;;;;5110939;28;20036;-67
2023/12/13 08:58:11;;;;;;;48.88;18.58;;;7.30;99.90;;;;;;5064126;28;20379;-67
2023/12/13 09:00:37;;;;;;;49.15;19.08;;;7.30;99.90;;;;;;5101423;28;20061;-67
2023/12/13 09:03:03;;;;;;;55.80;20.13;;;7.40;99.90;;;;;;5099278;28;20046;-67
2023/12/13 09:05:29;;;;;;;51.78;21.05;;;7.40;99.90;;;;;;5110256;28;20031;-67
2023/12/13 09:07:55;;;;;;;102.68;45.38;;;7.40;99.90;;;;;;5093127;28;20073;-67
2023/12/13 09:10:22;;;;;;;55.22;19.95;;;7.40;99.90;;;;;;5090073;28;20049;-67
2023/12/13 09:12:49;;;;;;;52.33;18.55;;;7.40;99.90;;;;;;5101194;28;20440;-67
2023/12/13 09:15:17;;;;;;;49.85;19.88;;;7.50;99.90;;;;;;5092131;28;20092;-67
2023/12/13 09:17:45;;;;;;;61.72;21.08;;;7.50;99.90;;;;;;5109322;28;20035;-67
2023/12/13 09:20:14;;;;;;;76.50;38.80;;;7.50;99.90;;;;;;5104046;28;20176;-67
2023/12/13 09:22:43;;;;;;;49.72;18.50;;;7.50;99.90;;;;;;5110631;28;20119;-67
2023/12/13 09:25:16;;;;;;;114.22;45.85;;;7.50;99.90;;;;;;5087749;28;20040;-67
2023/12/13 09:27:43;;;;;;;48.85;18.67;;;7.60;99.90;;;;;;5110394;28;20527;-67
2023/12/13 09:30:09;;;;;;;45.65;17.92;;;7.40;99.90;;;;;;5103924;28;20074;-67
2023/12/13 09:32:35;;;;;;;45.50;19.25;;;7.60;99.90;;;;;;5097466;28;20027;-67
2023/12/13 09:35:02;;;;;;;92.40;41.38;;;7.60;99.90;;;;;;5079819;28;20066;-67
2023/12/13 09:37:28;;;;;;;81.97;38.90;;;7.70;99.90;;;;;;5106387;28;20120;-67
2023/12/13 09:39:53;;;;;;;45.25;17.52;;;7.70;99.90;;;;;;5101545;28;20082;-67
2023/12/13 09:42:19;;;;;;;40.90;17.40;;;7.80;99.90;;;;;;5076318;28;20046;-67
2023/12/13 09:44:49;;;;;;;64.40;33.92;;;7.80;99.90;;;;;;5084856;28;20040;-67
2023/12/13 09:47:16;;;;;;;67.50;34.30;;;7.80;99.90;;;;;;5100830;28;20035;-67
2023/12/13 09:49:43;;;;;;;67.80;34.55;;;7.80;99.90;;;;;;5102161;28;20036;-67
2023/12/13 09:52:10;;;;;;;75.03;34.90;;;7.80;99.90;;;;;;5092801;28;20062;-67
2023/12/13 09:54:39;;;;;;;45.35;17.77;;;7.80;99.90;;;;;;5082307;28;20439;-67
2023/12/13 09:57:07;;;;;;;41.30;18.55;;;7.80;99.90;;;;;;5109677;28;20079;-67
2023/12/13 09:59:33;;;;;;;70.07;36.17;;;7.80;99.90;;;;;;5092709;28;20331;-67
2023/12/13 10:01:59;;;;;;;38.95;17.48;;;7.80;99.90;;;;;;5108227;28;20039;-67
2023/12/13 10:04:28;;;;;;;42.30;18.05;;;7.80;99.90;;;;;;5084195;28;20043;-67
2023/12/13 10:06:55;;;;;;;57.78;32.53;;;7.80;99.90;;;;;;5089374;28;20043;-67
2023/12/13 10:09:21;;;;;;;67.75;34.20;;;7.80;99.90;;;;;;5060801;28;20046;-67
2023/12/13 10:11:46;;;;;;;74.10;37.00;;;7.80;99.90;;;;;;5070448;28;20403;-67
2023/12/13 10:14:12;;;;;;;39.92;15.73;;;7.80;99.90;;;;;;5097550;28;20079;-67
2023/12/13 10:16:39;;;;;;;46.78;18.33;;;7.80;99.90;;;;;;5102110;28;20075;-67
2023/12/13 10:19:06;;;;;;;71.50;35.75;;;7.90;99.90;;;;;;5071537;28;20040;-67
2023/12/13 10:21:35;;;;;;;59.85;31.90;;;7.90;99.90;;;;;;5099953;28;20082;-67
2023/12/13 10:24:05;;;;;;;55.03;30.90;;;7.90;99.90;;;;;;5105801;28;20119;-67
2023/12/13 10:26:38;;;;;;;72.07;35.15;;;7.90;99.90;;;;;;5089117;28;20044;-67
2023/12/13 10:29:04;;;;;;;66.05;34.33;;;7.90;99.90;;;;;;5092397;28;20097;-67
2023/12/13 10:31:31;;;;;;;72.40;35.22;;;7.90;99.90;;;;;;5081356;28;20065;-67
2023/12/13 10:33:58;;;;;;;93.63;40.22;;;8.00;99.90;;;;;;5106321;28;20139;-67
2023/12/13 10:36:26;;;;;;;71.93;34.63;;;7.90;99.90;;;;;;5080061;28;20122;-67
2023/12/13 10:38:53;;;;;;;93.72;40.00;;;8.00;99.90;;;;;;5064326;28;20131;-67
2023/12/13 10:41:26;;;;;;;108.43;43.30;;;8.00;99.90;;;;;;5093433;28;20046;-67
2023/12/13 10:44:01;;;;;;;92.13;39.90;;;8.10;99.90;;;;;;5098974;28;20224;-67
2023/12/13 10:46:31;;;;;;;45.55;17.83;;;8.10;99.90;;;;;;5095905;28;20034;-67
2023/12/13 10:48:59;;;;;;;73.43;35.00;;;8.10;99.90;;;;;;5097286;28;20085;-67
2023/12/13 10:51:26;;;;;;;74.97;34.92;;;8.10;99.90;;;;;;5104340;28;20489;-67
2023/12/13 10:53:52;;;;;;;86.07;38.22;;;8.10;99.90;;;;;;5096374;28;20443;-67
2023/12/13 10:56:19;;;;;;;83.18;38.85;;;8.10;99.90;;;;;;5104928;28;20043;-67
2023/12/13 10:58:45;;;;;;;92.00;39.47;;;8.20;99.90;;;;;;5106166;28;20027;-67
2023/12/13 11:01:14;;;;;;;89.55;38.30;;;8.20;99.90;;;;;;5104485;28;20476;-67
2023/12/13 11:04:02;;;;;;;82.82;37.10;;;8.30;99.90;;;;;;5110557;28;20442;-67
2023/12/13 11:06:30;;;;;;;84.47;37.38;;;8.30;99.90;;;;;;5087413;28;20424;-67
2023/12/13 11:08:56;;;;;;;86.30;39.55;;;8.30;99.90;;;;;;5103617;28;20043;-67
2023/12/13 11:11:27;;;;;;;80.90;38.88;;;8.30;99.90;;;;;;5105607;28;20122;-67
2023/12/13 11:13:54;;;;;;;70.05;35.90;;;8.30;99.90;;;;;;5104620;28;20069;-67
2023/12/13 11:16:22;;;;;;;69.75;35.88;;;8.40;99.90;;;;;;5106526;28;20119;-67
2023/12/13 11:18:51;;;;;;;87.13;40.92;;;8.40;99.90;;;;;;5097229;28;20083;-67
2023/12/13 11:21:28;;;;;;;69.88;35.65;;;8.50;99.90;;;;;;5108523;28;20519;-67
2023/12/13 11:23:55;;;;;;;74.78;37.05;;;8.50;99.90;;;;;;5108101;28;20466;-67
2023/12/13 11:26:24;;;;;;;76.72;35.40;;;8.50;99.90;;;;;;5090932;28;20119;-67
2023/12/13 11:28:51;;;;;;;81.90;38.60;;;8.50;99.90;;;;;;5069800;28;20032;-67
2023/12/13 11:31:22;;;;;;;77.07;38.20;;;8.50;99.90;;;;;;5079933;28;20075;-67
2023/12/13 11:33:55;;;;;;;77.63;36.88;;;8.90;99.90;;;;;;5061420;28;20057;-68
2023/12/13 11:36:21;;;;;;;92.32;41.78;;;8.60;99.90;;;;;;5070808;28;20036;-67
2023/12/13 11:38:52;;;;;;;68.47;35.15;;;8.60;99.90;;;;;;5081567;28;20051;-67
2023/12/13 11:41:18;;;;;;;83.55;38.55;;;8.60;99.90;;;;;;5080786;28;20042;-68
2023/12/13 11:43:45;;;;;;;62.05;34.10;;;8.70;99.90;;;;;;5081408;28;20084;-67
2023/12/13 11:46:11;;;;;;;72.13;37.72;;;8.70;99.90;;;;;;5079637;28;20400;-68
2023/12/13 11:48:37;;;;;;;67.55;34.58;;;8.70;99.90;;;;;;5046030;28;20039;-68
2023/12/13 11:51:03;;;;;;;68.13;36.08;;;8.70;99.90;;;;;;5078044;28;20413;-68
2023/12/13 11:53:29;;;;;;;71.70;35.63;;;8.70;99.90;;;;;;5088145;28;20031;-68
2023/12/13 11:55:57;;;;;;;59.17;31.65;;;8.70;99.90;;;;;;5063910;28;20551;-67
2023/12/13 11:58:26;;;;;;;64.45;33.85;;;8.80;99.90;;;;;;5061779;28;20166;-68
2023/12/13 12:00:52;;;;;;;64.90;34.22;;;8.80;99.90;;;;;;5076682;28;20508;-68
2023/12/13 12:03:18;;;;;;;59.05;31.98;;;8.80;99.90;;;;;;5077318;28;20466;-68
2023/12/13 12:05:43;;;;;;;56.97;31.25;;;8.80;99.90;;;;;;5060092;28;20028;-68
2023/12/13 12:08:11;;;;;;;55.83;30.90;;;8.80;99.90;;;;;;5078049;28;20439;-67
2023/12/13 12:10:37;;;;;;;59.88;33.45;;;8.70;99.90;;;;;;5077598;28;20110;-67
2023/12/13 12:13:03;;;;;;;53.05;30.67;;;8.80;99.90;;;;;;5061907;28;20042;-68
2023/12/13 12:15:35;;;;;;;60.78;31.27;;;8.80;99.90;;;;;;5079650;28;20028;-68
2023/12/13 12:18:04;;;;;;;57.38;31.83;;;8.80;99.90;;;;;;5079032;28;20032;-68
2023/12/13 12:20:30;;;;;;;61.40;32.78;;;8.80;99.90;;;;;;5062385;28;20183;-68
2023/12/13 12:22:58;;;;;;;62.30;33.08;;;8.80;99.90;;;;;;5061839;28;20424;-68
2023/12/13 12:25:25;;;;;;;58.72;30.45;;;8.80;99.90;;;;;;5076437;28;20079;-68
2023/12/13 12:27:51;;;;;;;53.22;30.75;;;8.80;99.90;;;;;;5078496;28;20097;-67
2023/12/13 12:30:18;;;;;;;48.05;27.73;;;8.80;99.90;;;;;;5063196;28;20083;-67
2023/12/13 12:32:46;;;;;;;55.75;29.75;;;8.80;99.90;;;;;;5061613;28;20075;-67